sensor_id;sensor_type;location;lat;lon;timestamp;pressure;altitude;pressure_sealevel;temperature;humidity
17362;BME280;8798;51.938;4.348;2022-08-03T00:01:32;101114.13;;;23.71;63.11
17362;BME280;8798;51.938;4.348;2022-08-03T00:04:02;101116.06;;;23.71;62.36
17362;BME280;8798;51.938;4.348;2022-08-03T00:06:30;101115.44;;;23.69;63.24
17362;BME280;8798;51.938;4.348;2022-08-03T00:09:03;101122.00;;;23.68;62.52
17362;BME280;8798;51.938;4.348;2022-08-03T00:11:31;101122.84;;;23.68;62.88
17362;BME280;8798;51.938;4.348;2022-08-03T00:13:59;101129.63;;;23.66;63.03
17362;BME280;8798;51.938;4.348;2022-08-03T00:16:27;101121.66;;;23.64;63.23
17362;BME280;8798;51.938;4.348;2022-08-03T00:18:55;101130.94;;;23.63;63.54
17362;BME280;8798;51.938;4.348;2022-08-03T00:21:24;101126.53;;;23.62;62.97
17362;BME280;8798;51.938;4.348;2022-08-03T00:23:52;101129.50;;;23.60;63.14
17362;BME280;8798;51.938;4.348;2022-08-03T00:26:20;101128.88;;;23.58;63.51
17362;BME280;8798;51.938;4.348;2022-08-03T00:28:48;101124.69;;;23.56;63.55
17362;BME280;8798;51.938;4.348;2022-08-03T00:31:16;101116.09;;;23.52;63.65
17362;BME280;8798;51.938;4.348;2022-08-03T00:34:04;101115.50;;;23.50;63.20
17362;BME280;8798;51.938;4.348;2022-08-03T00:36:33;101122.88;;;23.50;63.43
17362;BME280;8798;51.938;4.348;2022-08-03T00:39:01;101126.69;;;23.49;63.96
17362;BME280;8798;51.938;4.348;2022-08-03T00:41:29;101136.59;;;23.50;63.88
17362;BME280;8798;51.938;4.348;2022-08-03T00:43:57;101138.50;;;23.49;63.96
17362;BME280;8798;51.938;4.348;2022-08-03T00:46:25;101122.97;;;23.43;63.77
17362;BME280;8798;51.938;4.348;2022-08-03T00:48:52;101109.94;;;23.38;64.32
17362;BME280;8798;51.938;4.348;2022-08-03T00:51:21;101110.19;;;23.37;64.28
17362;BME280;8798;51.938;4.348;2022-08-03T00:53:50;101110.41;;;23.35;63.96
17362;BME280;8798;51.938;4.348;2022-08-03T00:56:18;101110.63;;;23.34;64.37
17362;BME280;8798;51.938;4.348;2022-08-03T00:58:46;101113.38;;;23.34;64.39
17362;BME280;8798;51.938;4.348;2022-08-03T01:01:14;101120.75;;;23.33;64.40
17362;BME280;8798;51.938;4.348;2022-08-03T01:03:43;101115.53;;;23.32;64.32
17362;BME280;8798;51.938;4.348;2022-08-03T01:06:15;101112.41;;;23.28;64.57
17362;BME280;8798;51.938;4.348;2022-08-03T01:08:47;101115.13;;;23.28;64.30
17362;BME280;8798;51.938;4.348;2022-08-03T01:11:26;101115.34;;;23.27;64.54
17362;BME280;8798;51.938;4.348;2022-08-03T01:14:03;101104.84;;;23.24;64.59
17362;BME280;8798;51.938;4.348;2022-08-03T01:16:51;101112.47;;;23.22;64.82
17362;BME280;8798;51.938;4.348;2022-08-03T01:19:30;101109.13;;;23.20;64.99
17362;BME280;8798;51.938;4.348;2022-08-03T01:22:17;101103.03;;;23.17;64.86
17362;BME280;8798;51.938;4.348;2022-08-03T01:24:56;101116.75;;;23.17;64.61
17362;BME280;8798;51.938;4.348;2022-08-03T01:27:41;101100.72;;;23.14;65.04
17362;BME280;8798;51.938;4.348;2022-08-03T01:30:13;101102.91;;;23.12;64.55
17362;BME280;8798;51.938;4.348;2022-08-03T01:32:46;101103.94;;;23.11;65.27
17362;BME280;8798;51.938;4.348;2022-08-03T01:35:31;101104.41;;;23.08;65.30
17362;BME280;8798;51.938;4.348;2022-08-03T01:38:07;101099.13;;;23.07;65.08
17362;BME280;8798;51.938;4.348;2022-08-03T01:40:38;101113.72;;;23.07;65.06
17362;BME280;8798;51.938;4.348;2022-08-03T01:43:08;101105.91;;;23.04;65.52
17362;BME280;8798;51.938;4.348;2022-08-03T01:45:38;101113.09;;;23.05;65.01
17362;BME280;8798;51.938;4.348;2022-08-03T01:48:07;101113.31;;;23.04;65.12
17362;BME280;8798;51.938;4.348;2022-08-03T01:50:36;101117.97;;;23.03;65.23
17362;BME280;8798;51.938;4.348;2022-08-03T01:53:06;101119.03;;;23.02;65.76
17362;BME280;8798;51.938;4.348;2022-08-03T01:55:36;101116.72;;;22.99;65.58
17362;BME280;8798;51.938;4.348;2022-08-03T01:58:05;101110.59;;;22.97;65.82
17362;BME280;8798;51.938;4.348;2022-08-03T02:00:34;101106.41;;;22.94;65.45
17362;BME280;8798;51.938;4.348;2022-08-03T02:03:06;101100.34;;;22.92;65.85
17362;BME280;8798;51.938;4.348;2022-08-03T02:05:34;101098.91;;;22.90;65.77
17362;BME280;8798;51.938;4.348;2022-08-03T02:08:04;101088.38;;;22.87;65.98
17362;BME280;8798;51.938;4.348;2022-08-03T02:10:34;101092.19;;;22.86;66.16
17362;BME280;8798;51.938;4.348;2022-08-03T02:13:04;101103.97;;;22.86;65.65
17362;BME280;8798;51.938;4.348;2022-08-03T02:15:35;101094.31;;;22.84;66.29
17362;BME280;8798;51.938;4.348;2022-08-03T02:18:06;101081.28;;;22.79;65.79
17362;BME280;8798;51.938;4.348;2022-08-03T02:20:36;101075.44;;;22.75;66.30
17362;BME280;8798;51.938;4.348;2022-08-03T02:23:04;101064.09;;;22.72;65.89
17362;BME280;8798;51.938;4.348;2022-08-03T02:25:34;101072.31;;;22.72;66.52
17362;BME280;8798;51.938;4.348;2022-08-03T02:28:07;101068.13;;;22.69;66.30
17362;BME280;8798;51.938;4.348;2022-08-03T02:30:38;101061.19;;;22.67;66.25
17362;BME280;8798;51.938;4.348;2022-08-03T02:33:16;101059.75;;;22.64;66.55
17362;BME280;8798;51.938;4.348;2022-08-03T02:35:46;101066.31;;;22.63;66.25
17362;BME280;8798;51.938;4.348;2022-08-03T02:38:15;101061.03;;;22.62;66.44
17362;BME280;8798;51.938;4.348;2022-08-03T02:40:45;101063.78;;;22.62;66.20
17362;BME280;8798;51.938;4.348;2022-08-03T02:43:17;101062.31;;;22.59;66.57
17362;BME280;8798;51.938;4.348;2022-08-03T02:45:47;101068.06;;;22.58;66.90
17362;BME280;8798;51.938;4.348;2022-08-03T02:48:19;101074.34;;;22.58;66.39
17362;BME280;8798;51.938;4.348;2022-08-03T02:50:51;101077.31;;;22.57;66.44
17362;BME280;8798;51.938;4.348;2022-08-03T02:53:20;101082.78;;;22.57;66.98
17362;BME280;8798;51.938;4.348;2022-08-03T02:55:49;101086.59;;;22.56;66.72
17362;BME280;8798;51.938;4.348;2022-08-03T02:58:18;101086.00;;;22.53;66.73
17362;BME280;8798;51.938;4.348;2022-08-03T03:00:47;101083.25;;;22.53;67.06
17362;BME280;8798;51.938;4.348;2022-08-03T03:03:19;101082.00;;;22.49;66.95
17362;BME280;8798;51.938;4.348;2022-08-03T03:05:48;101081.19;;;22.49;67.17
17362;BME280;8798;51.938;4.348;2022-08-03T03:08:23;101080.56;;;22.47;66.73
17362;BME280;8798;51.938;4.348;2022-08-03T03:10:55;101062.06;;;22.42;67.45
17362;BME280;8798;51.938;4.348;2022-08-03T03:13:26;101047.38;;;22.37;67.55
17362;BME280;8798;51.938;4.348;2022-08-03T03:15:56;101048.47;;;22.36;66.98
17362;BME280;8798;51.938;4.348;2022-08-03T03:18:27;101055.81;;;22.35;67.27
17362;BME280;8798;51.938;4.348;2022-08-03T03:20:56;101056.88;;;22.34;67.21
17362;BME280;8798;51.938;4.348;2022-08-03T03:23:26;101064.28;;;22.33;67.27
17362;BME280;8798;51.938;4.348;2022-08-03T03:25:55;101074.97;;;22.35;67.50
17362;BME280;8798;51.938;4.348;2022-08-03T03:28:24;101063.66;;;22.31;67.83
17362;BME280;8798;51.938;4.348;2022-08-03T03:30:52;101066.59;;;22.30;67.80
17362;BME280;8798;51.938;4.348;2022-08-03T03:33:20;101063.03;;;22.29;67.76
17362;BME280;8798;51.938;4.348;2022-08-03T03:35:50;101064.31;;;22.27;67.56
17362;BME280;8798;51.938;4.348;2022-08-03T03:38:18;101072.53;;;22.27;67.70
17362;BME280;8798;51.938;4.348;2022-08-03T03:40:47;101081.56;;;22.27;67.68
17362;BME280;8798;51.938;4.348;2022-08-03T03:43:15;101087.03;;;22.27;68.03
17362;BME280;8798;51.938;4.348;2022-08-03T03:45:44;101078.22;;;22.25;68.23
17362;BME280;8798;51.938;4.348;2022-08-03T03:48:13;101076.75;;;22.23;68.12
17362;BME280;8798;51.938;4.348;2022-08-03T03:50:42;101083.31;;;22.22;67.62
17362;BME280;8798;51.938;4.348;2022-08-03T03:53:12;101070.06;;;22.19;68.09
17362;BME280;8798;51.938;4.348;2022-08-03T03:55:42;101070.25;;;22.17;67.98
17362;BME280;8798;51.938;4.348;2022-08-03T03:58:29;101082.03;;;22.18;68.08
17362;BME280;8798;51.938;4.348;2022-08-03T04:00:57;101083.94;;;22.17;68.29
17362;BME280;8798;51.938;4.348;2022-08-03T04:03:25;101080.59;;;22.15;67.89
17362;BME280;8798;51.938;4.348;2022-08-03T04:05:53;101071.16;;;22.11;68.64
17362;BME280;8798;51.938;4.348;2022-08-03T04:08:40;101063.38;;;22.08;68.00
17362;BME280;8798;51.938;4.348;2022-08-03T04:11:44;101064.66;;;22.05;68.28
17362;BME280;8798;51.938;4.348;2022-08-03T04:14:16;101069.31;;;22.05;68.43
17362;BME280;8798;51.938;4.348;2022-08-03T04:16:48;101064.91;;;22.04;68.77
17362;BME280;8798;51.938;4.348;2022-08-03T04:19:23;101062.63;;;22.01;68.50
17362;BME280;8798;51.938;4.348;2022-08-03T04:21:56;101060.94;;;22.00;68.92
17362;BME280;8798;51.938;4.348;2022-08-03T04:24:32;101064.72;;;21.99;68.65
17362;BME280;8798;51.938;4.348;2022-08-03T04:27:04;101068.50;;;21.98;68.37
17362;BME280;8798;51.938;4.348;2022-08-03T04:29:34;101067.91;;;21.96;69.00
17362;BME280;8798;51.938;4.348;2022-08-03T04:32:14;101079.47;;;21.98;68.88
17362;BME280;8798;51.938;4.348;2022-08-03T04:34:43;101082.44;;;21.96;68.88
17362;BME280;8798;51.938;4.348;2022-08-03T04:37:15;101073.38;;;21.96;68.64
17362;BME280;8798;51.938;4.348;2022-08-03T04:39:48;101068.34;;;21.93;68.56
17362;BME280;8798;51.938;4.348;2022-08-03T04:42:17;101084.53;;;21.94;68.72
17362;BME280;8798;51.938;4.348;2022-08-03T04:44:47;101090.22;;;21.93;69.12
17362;BME280;8798;51.938;4.348;2022-08-03T04:47:16;101084.13;;;21.90;68.92
17362;BME280;8798;51.938;4.348;2022-08-03T04:49:44;101089.00;;;21.88;68.92
17362;BME280;8798;51.938;4.348;2022-08-03T04:52:12;101093.41;;;21.89;69.48
17362;BME280;8798;51.938;4.348;2022-08-03T04:54:41;101094.50;;;21.88;69.21
17362;BME280;8798;51.938;4.348;2022-08-03T04:57:17;101101.63;;;21.89;69.03
17362;BME280;8798;51.938;4.348;2022-08-03T04:59:48;101110.03;;;21.88;69.29
17362;BME280;8798;51.938;4.348;2022-08-03T05:02:27;101111.09;;;21.87;69.59
17362;BME280;8798;51.938;4.348;2022-08-03T05:04:55;101102.28;;;21.85;69.22
17362;BME280;8798;51.938;4.348;2022-08-03T05:07:24;101107.75;;;21.85;69.55
17362;BME280;8798;51.938;4.348;2022-08-03T05:10:03;101129.19;;;21.88;69.44
17362;BME280;8798;51.938;4.348;2022-08-03T05:12:42;101158.63;;;21.93;69.68
17362;BME280;8798;51.938;4.348;2022-08-03T05:15:10;101173.75;;;21.95;69.52
17362;BME280;8798;51.938;4.348;2022-08-03T05:17:38;101189.72;;;21.98;69.23
17362;BME280;8798;51.938;4.348;2022-08-03T05:20:07;101206.78;;;22.00;69.71
17362;BME280;8798;51.938;4.348;2022-08-03T05:22:35;101221.91;;;22.03;69.68
17362;BME280;8798;51.938;4.348;2022-08-03T05:25:04;101243.41;;;22.06;69.89
17362;BME280;8798;51.938;4.348;2022-08-03T05:27:32;101260.22;;;22.09;69.60
17362;BME280;8798;51.938;4.348;2022-08-03T05:30:01;101269.25;;;22.10;69.66
17362;BME280;8798;51.938;4.348;2022-08-03T05:32:49;101294.06;;;22.15;70.07
17362;BME280;8798;51.938;4.348;2022-08-03T05:35:16;101309.88;;;22.20;69.64
17362;BME280;8798;51.938;4.348;2022-08-03T05:38:05;101333.88;;;22.24;69.77
17362;BME280;8798;51.938;4.348;2022-08-03T05:40:34;101352.59;;;22.27;69.79
17362;BME280;8798;51.938;4.348;2022-08-03T05:43:02;101367.72;;;22.30;70.02
17362;BME280;8798;51.938;4.348;2022-08-03T05:45:32;101394.47;;;22.35;69.87
17362;BME280;8798;51.938;4.348;2022-08-03T05:47:59;101416.56;;;22.40;69.61
17362;BME280;8798;51.938;4.348;2022-08-03T05:50:27;101429.84;;;22.43;70.02
17362;BME280;8798;51.938;4.348;2022-08-03T05:52:55;101419.94;;;22.42;70.01
17362;BME280;8798;51.938;4.348;2022-08-03T05:55:24;101434.44;;;22.42;69.73
17362;BME280;8798;51.938;4.348;2022-08-03T05:57:52;101431.72;;;22.42;69.92
17362;BME280;8798;51.938;4.348;2022-08-03T06:00:22;101427.94;;;22.43;70.03
17362;BME280;8798;51.938;4.348;2022-08-03T06:02:52;101439.72;;;22.44;69.65
17362;BME280;8798;51.938;4.348;2022-08-03T06:05:20;101438.66;;;22.45;70.28
17362;BME280;8798;51.938;4.348;2022-08-03T06:07:48;101446.66;;;22.46;69.94
17362;BME280;8798;51.938;4.348;2022-08-03T06:10:16;101457.19;;;22.49;70.07
17362;BME280;8798;51.938;4.348;2022-08-03T06:13:03;101458.03;;;22.50;70.11
17362;BME280;8798;51.938;4.348;2022-08-03T06:15:31;101472.13;;;22.53;69.87
17362;BME280;8798;51.938;4.348;2022-08-03T06:18:02;101482.84;;;22.55;70.32
17362;BME280;8798;51.938;4.348;2022-08-03T06:20:30;101490.88;;;22.57;69.95
17362;BME280;8798;51.938;4.348;2022-08-03T06:22:58;101490.88;;;22.57;70.37
17362;BME280;8798;51.938;4.348;2022-08-03T06:25:26;101470.44;;;22.52;70.14
17362;BME280;8798;51.938;4.348;2022-08-03T06:27:54;101476.78;;;22.53;70.41
17362;BME280;8798;51.938;4.348;2022-08-03T06:30:22;101484.56;;;22.56;69.96
17362;BME280;8798;51.938;4.348;2022-08-03T06:32:51;101485.19;;;22.58;70.02
17362;BME280;8798;51.938;4.348;2022-08-03T06:35:20;101511.06;;;22.62;70.42
17362;BME280;8798;51.938;4.348;2022-08-03T06:37:50;101538.44;;;22.69;70.48
17362;BME280;8798;51.938;4.348;2022-08-03T06:40:20;101563.31;;;22.74;70.06
17362;BME280;8798;51.938;4.348;2022-08-03T06:42:54;101572.78;;;22.78;69.97
17362;BME280;8798;51.938;4.348;2022-08-03T06:45:21;101578.91;;;22.80;70.02
17362;BME280;8798;51.938;4.348;2022-08-03T06:47:59;101588.59;;;22.83;70.16
17362;BME280;8798;51.938;4.348;2022-08-03T06:50:29;101585.84;;;22.83;70.41
17362;BME280;8798;51.938;4.348;2022-08-03T06:52:57;101599.13;;;22.86;70.25
17362;BME280;8798;51.938;4.348;2022-08-03T06:55:25;101614.91;;;22.90;69.96
17362;BME280;8798;51.938;4.348;2022-08-03T06:57:53;101637.03;;;22.95;70.23
17362;BME280;8798;51.938;4.348;2022-08-03T07:00:25;101643.19;;;22.98;70.41
17362;BME280;8798;51.938;4.348;2022-08-03T07:02:54;101646.53;;;23.00;70.17
17362;BME280;8798;51.938;4.348;2022-08-03T07:05:24;101650.97;;;23.01;70.14
17362;BME280;8798;51.938;4.348;2022-08-03T07:07:54;101625.25;;;22.95;69.73
17362;BME280;8798;51.938;4.348;2022-08-03T07:10:24;101621.44;;;22.96;69.91
17362;BME280;8798;51.938;4.348;2022-08-03T07:12:53;101618.88;;;22.94;69.98
17362;BME280;8798;51.938;4.348;2022-08-03T07:15:22;101604.34;;;22.94;70.11
17362;BME280;8798;51.938;4.348;2022-08-03T07:18:10;101603.50;;;22.93;69.93
17362;BME280;8798;51.938;4.348;2022-08-03T07:20:37;101599.94;;;22.93;70.12
17362;BME280;8798;51.938;4.348;2022-08-03T07:23:08;101613.88;;;22.98;69.97
17362;BME280;8798;51.938;4.348;2022-08-03T07:25:44;101631.78;;;23.01;69.54
17362;BME280;8798;51.938;4.348;2022-08-03T07:28:12;101641.28;;;23.05;70.19
17362;BME280;8798;51.938;4.348;2022-08-03T07:30:40;101655.38;;;23.08;69.56
17362;BME280;8798;51.938;4.348;2022-08-03T07:33:08;101680.25;;;23.13;69.56
17362;BME280;8798;51.938;4.348;2022-08-03T07:35:36;101700.25;;;23.21;69.49
17362;BME280;8798;51.938;4.348;2022-08-03T07:38:08;101707.22;;;23.23;69.64
17362;BME280;8798;51.938;4.348;2022-08-03T07:40:36;101713.34;;;23.25;69.89
17362;BME280;8798;51.938;4.348;2022-08-03T07:43:11;101702.81;;;23.22;69.89
17362;BME280;8798;51.938;4.348;2022-08-03T07:45:39;101670.53;;;23.17;69.62
17362;BME280;8798;51.938;4.348;2022-08-03T07:48:07;101650.09;;;23.13;69.41
17362;BME280;8798;51.938;4.348;2022-08-03T07:50:38;101657.25;;;23.14;69.82
17362;BME280;8798;51.938;4.348;2022-08-03T07:53:05;101662.53;;;23.16;69.49
17362;BME280;8798;51.938;4.348;2022-08-03T07:55:35;101681.91;;;23.21;69.56
17362;BME280;8798;51.938;4.348;2022-08-03T07:58:05;101701.28;;;23.26;69.38
17362;BME280;8798;51.938;4.348;2022-08-03T08:00:34;101712.69;;;23.30;69.20
17362;BME280;8798;51.938;4.348;2022-08-03T08:03:03;101708.88;;;23.31;69.68
17362;BME280;8798;51.938;4.348;2022-08-03T08:05:31;101698.34;;;23.28;69.07
17362;BME280;8798;51.938;4.348;2022-08-03T08:07:59;101679.59;;;23.25;69.82
17362;BME280;8798;51.938;4.348;2022-08-03T08:10:27;101687.59;;;23.26;69.08
17362;BME280;8798;51.938;4.348;2022-08-03T08:12:57;101701.72;;;23.30;69.37
17362;BME280;8798;51.938;4.348;2022-08-03T08:15:25;101698.75;;;23.31;69.45
17362;BME280;8798;51.938;4.348;2022-08-03T08:17:53;101696.88;;;23.32;69.61
17362;BME280;8798;51.938;4.348;2022-08-03T08:20:24;101699.38;;;23.33;69.01
17362;BME280;8798;51.938;4.348;2022-08-03T08:22:59;101707.41;;;23.35;69.51
17362;BME280;8798;51.938;4.348;2022-08-03T08:25:29;101715.81;;;23.40;69.14
17362;BME280;8798;51.938;4.348;2022-08-03T08:27:59;101720.47;;;23.39;69.58
17362;BME280;8798;51.938;4.348;2022-08-03T08:30:49;101719.41;;;23.40;69.20
17362;BME280;8798;51.938;4.348;2022-08-03T08:33:17;101721.06;;;23.42;69.48
17362;BME280;8798;51.938;4.348;2022-08-03T08:35:48;101722.97;;;23.41;69.02
17362;BME280;8798;51.938;4.348;2022-08-03T08:38:16;101713.72;;;23.42;69.23
17362;BME280;8798;51.938;4.348;2022-08-03T08:40:44;101705.69;;;23.40;68.95
17362;BME280;8798;51.938;4.348;2022-08-03T08:43:13;101686.94;;;23.37;68.74
17362;BME280;8798;51.938;4.348;2022-08-03T08:45:42;101678.06;;;23.35;68.70
17362;BME280;8798;51.938;4.348;2022-08-03T08:48:12;101667.31;;;23.34;69.36
17362;BME280;8798;51.938;4.348;2022-08-03T08:50:40;101669.63;;;23.37;69.05
17362;BME280;8798;51.938;4.348;2022-08-03T08:53:09;101672.97;;;23.39;69.19
17362;BME280;8798;51.938;4.348;2022-08-03T08:55:45;101704.22;;;23.45;69.14
17362;BME280;8798;51.938;4.348;2022-08-03T08:58:28;101726.34;;;23.50;69.28
17362;BME280;8798;51.938;4.348;2022-08-03T09:00:56;101727.81;;;23.52;68.70
17362;BME280;8798;51.938;4.348;2022-08-03T09:03:24;101738.16;;;23.57;68.89
17362;BME280;8798;51.938;4.348;2022-08-03T09:05:58;101760.50;;;23.60;68.66
17362;BME280;8798;51.938;4.348;2022-08-03T09:08:26;101771.91;;;23.64;68.73
17362;BME280;8798;51.938;4.348;2022-08-03T09:10:55;101802.88;;;23.71;69.09
17362;BME280;8798;51.938;4.348;2022-08-03T09:13:23;101821.28;;;23.77;68.63
17362;BME280;8798;51.938;4.348;2022-08-03T09:18:46;101844.88;;;23.85;68.78
17362;BME280;8798;51.938;4.348;2022-08-03T09:21:17;101824.00;;;23.84;69.03
17362;BME280;8798;51.938;4.348;2022-08-03T09:24:02;101820.63;;;23.82;68.56
17362;BME280;8798;51.938;4.348;2022-08-03T09:26:36;101810.28;;;23.84;68.58
17362;BME280;8798;51.938;4.348;2022-08-03T09:29:08;101830.72;;;23.88;68.31
17362;BME280;8798;51.938;4.348;2022-08-03T09:31:42;101854.34;;;23.96;68.63
17362;BME280;8798;51.938;4.348;2022-08-03T09:34:13;101874.00;;;23.99;68.70
17362;BME280;8798;51.938;4.348;2022-08-03T09:36:43;101881.78;;;24.02;68.34
17362;BME280;8798;51.938;4.348;2022-08-03T09:39:13;101896.56;;;24.08;68.38
17362;BME280;8798;51.938;4.348;2022-08-03T09:41:43;101915.75;;;24.15;68.36
17362;BME280;8798;51.938;4.348;2022-08-03T09:44:11;101938.75;;;24.20;68.09
17362;BME280;8798;51.938;4.348;2022-08-03T09:46:52;101949.34;;;24.23;68.16
17362;BME280;8798;51.938;4.348;2022-08-03T09:49:23;101956.91;;;24.28;68.33
17362;BME280;8798;51.938;4.348;2022-08-03T09:51:51;101960.28;;;24.30;68.00
17362;BME280;8798;51.938;4.348;2022-08-03T09:54:39;101980.59;;;24.36;68.19
17362;BME280;8798;51.938;4.348;2022-08-03T09:57:07;101992.81;;;24.40;67.93
17362;BME280;8798;51.938;4.348;2022-08-03T09:59:35;102003.16;;;24.44;67.74
17362;BME280;8798;51.938;4.348;2022-08-03T10:02:20;102009.94;;;24.49;68.07
17362;BME280;8798;51.938;4.348;2022-08-03T10:04:51;102008.88;;;24.50;67.68
17362;BME280;8798;51.938;4.348;2022-08-03T10:07:20;101998.72;;;24.50;67.63
17362;BME280;8798;51.938;4.348;2022-08-03T10:09:52;101991.34;;;24.51;67.79
17362;BME280;8798;51.938;4.348;2022-08-03T10:12:21;101978.66;;;24.50;67.69
17362;BME280;8798;51.938;4.348;2022-08-03T10:14:49;101962.16;;;24.50;67.60
17362;BME280;8798;51.938;4.348;2022-08-03T10:17:18;101986.88;;;24.56;67.47
17362;BME280;8798;51.938;4.348;2022-08-03T10:19:46;101998.06;;;24.61;67.29
17362;BME280;8798;51.938;4.348;2022-08-03T10:22:20;102001.22;;;24.65;67.56
17362;BME280;8798;51.938;4.348;2022-08-03T10:24:52;102037.75;;;24.72;67.31
17362;BME280;8798;51.938;4.348;2022-08-03T10:27:22;102063.13;;;24.81;67.34
17362;BME280;8798;51.938;4.348;2022-08-03T10:29:51;102087.81;;;24.87;67.26
17362;BME280;8798;51.938;4.348;2022-08-03T10:32:24;102081.91;;;24.91;67.26
17362;BME280;8798;51.938;4.348;2022-08-03T10:35:00;102071.97;;;24.89;67.40
17362;BME280;8798;51.938;4.348;2022-08-03T10:37:51;102060.13;;;24.89;67.20
17362;BME280;8798;51.938;4.348;2022-08-03T10:40:23;102070.47;;;24.94;66.96
17362;BME280;8798;51.938;4.348;2022-08-03T10:43:18;102103.84;;;25.04;66.99
17362;BME280;8798;51.938;4.348;2022-08-03T10:45:47;102132.81;;;25.13;66.89
17362;BME280;8798;51.938;4.348;2022-08-03T10:48:16;102152.94;;;25.20;66.77
17362;BME280;8798;51.938;4.348;2022-08-03T10:50:45;102165.81;;;25.26;66.69
17362;BME280;8798;51.938;4.348;2022-08-03T10:53:14;102179.75;;;25.31;66.52
17362;BME280;8798;51.938;4.348;2022-08-03T10:55:45;102192.66;;;25.38;65.91
17362;BME280;8798;51.938;4.348;2022-08-03T10:58:49;102225.22;;;25.47;66.58
17362;BME280;8798;51.938;4.348;2022-08-03T11:01:50;102260.31;;;25.59;66.35
17362;BME280;8798;51.938;4.348;2022-08-03T11:04:26;102266.88;;;25.64;66.11
17362;BME280;8798;51.938;4.348;2022-08-03T11:07:17;102287.81;;;25.72;66.28
17362;BME280;8798;51.938;4.348;2022-08-03T11:09:48;102324.63;;;25.84;66.15
17362;BME280;8798;51.938;4.348;2022-08-03T11:12:24;102368.88;;;25.96;65.69
17362;BME280;8798;51.938;4.348;2022-08-03T11:14:57;102387.06;;;26.04;65.56
17362;BME280;8798;51.938;4.348;2022-08-03T11:17:26;102410.56;;;26.13;65.49
17362;BME280;8798;51.938;4.348;2022-08-03T11:19:53;102431.53;;;26.21;65.73
17362;BME280;8798;51.938;4.348;2022-08-03T11:22:24;102444.44;;;26.27;65.77
17362;BME280;8798;51.938;4.348;2022-08-03T11:24:59;102449.91;;;26.33;65.36
17362;BME280;8798;51.938;4.348;2022-08-03T11:27:29;102453.72;;;26.39;65.05
17362;BME280;8798;51.938;4.348;2022-08-03T11:30:00;102451.38;;;26.43;65.00
17362;BME280;8798;51.938;4.348;2022-08-03T11:32:50;102435.47;;;26.45;65.29
17362;BME280;8798;51.938;4.348;2022-08-03T11:35:20;102420.84;;;26.44;65.01
17362;BME280;8798;51.938;4.348;2022-08-03T11:38:02;102419.09;;;26.50;64.82
17362;BME280;8798;51.938;4.348;2022-08-03T11:40:41;102407.88;;;26.51;64.45
17362;BME280;8798;51.938;4.348;2022-08-03T11:43:43;102407.00;;;26.57;64.04
17362;BME280;8798;51.938;4.348;2022-08-03T11:46:13;102426.91;;;26.66;64.12
17362;BME280;8798;51.938;4.348;2022-08-03T11:49:03;102431.53;;;26.72;64.35
17362;BME280;8798;51.938;4.348;2022-08-03T11:51:36;102434.25;;;26.79;63.55
17362;BME280;8798;51.938;4.348;2022-08-03T11:54:06;102480.44;;;26.90;63.47
17362;BME280;8798;51.938;4.348;2022-08-03T11:56:45;102523.22;;;27.06;63.25
17362;BME280;8798;51.938;4.348;2022-08-03T11:59:14;102558.22;;;27.19;63.38
17362;BME280;8798;51.938;4.348;2022-08-03T12:01:48;102563.91;;;27.24;63.24
17362;BME280;8798;51.938;4.348;2022-08-03T12:04:16;102549.66;;;27.27;62.73
17362;BME280;8798;51.938;4.348;2022-08-03T12:06:57;102559.84;;;27.33;62.67
17362;BME280;8798;51.938;4.348;2022-08-03T12:09:25;102548.34;;;27.36;62.30
17362;BME280;8798;51.938;4.348;2022-08-03T12:11:54;102539.59;;;27.39;62.41
17362;BME280;8798;51.938;4.348;2022-08-03T12:14:27;102531.75;;;27.43;62.40
17362;BME280;8798;51.938;4.348;2022-08-03T12:17:15;102532.53;;;27.50;62.14
17362;BME280;8798;51.938;4.348;2022-08-03T12:19:43;102549.91;;;27.57;62.15
17362;BME280;8798;51.938;4.348;2022-08-03T12:22:11;102559.84;;;27.65;61.34
17362;BME280;8798;51.938;4.348;2022-08-03T12:24:41;102572.53;;;27.73;61.08
17362;BME280;8798;51.938;4.348;2022-08-03T12:27:21;102576.28;;;27.78;61.46
17362;BME280;8798;51.938;4.348;2022-08-03T12:29:50;102575.44;;;27.84;60.89
17362;BME280;8798;51.938;4.348;2022-08-03T12:32:25;102608.69;;;27.96;61.07
17362;BME280;8798;51.938;4.348;2022-08-03T12:34:53;102611.41;;;28.03;60.90
17362;BME280;8798;51.938;4.348;2022-08-03T12:37:26;102624.94;;;28.11;60.17
17362;BME280;8798;51.938;4.348;2022-08-03T12:39:55;102631.25;;;28.18;59.74
17362;BME280;8798;51.938;4.348;2022-08-03T12:42:34;102628.66;;;28.23;60.16
17362;BME280;8798;51.938;4.348;2022-08-03T12:45:18;102624.38;;;28.27;59.35
17362;BME280;8798;51.938;4.348;2022-08-03T12:47:49;102617.09;;;28.33;59.65
17362;BME280;8798;51.938;4.348;2022-08-03T12:50:23;102610.88;;;28.38;59.26
17362;BME280;8798;51.938;4.348;2022-08-03T12:52:52;102607.44;;;28.42;59.37
17362;BME280;8798;51.938;4.348;2022-08-03T12:55:21;102598.72;;;28.45;59.14
17362;BME280;8798;51.938;4.348;2022-08-03T12:57:51;102596.09;;;28.50;58.21
17362;BME280;8798;51.938;4.348;2022-08-03T13:00:19;102582.88;;;28.52;58.37
17362;BME280;8798;51.938;4.348;2022-08-03T13:03:03;102574.75;;;28.58;58.06
17362;BME280;8798;51.938;4.348;2022-08-03T13:05:51;102565.13;;;28.60;57.79
17362;BME280;8798;51.938;4.348;2022-08-03T13:08:21;102555.53;;;28.63;57.86
17362;BME280;8798;51.938;4.348;2022-08-03T13:10:49;102563.16;;;28.67;57.35
17362;BME280;8798;51.938;4.348;2022-08-03T13:13:36;102598.94;;;28.81;57.55
17362;BME280;8798;51.938;4.348;2022-08-03T13:16:04;102617.78;;;28.90;57.48
17362;BME280;8798;51.938;4.348;2022-08-03T13:18:32;102641.09;;;29.01;57.32
17362;BME280;8798;51.938;4.348;2022-08-03T13:21:00;102665.25;;;29.12;56.90
17362;BME280;8798;51.938;4.348;2022-08-03T13:23:28;102654.78;;;29.14;56.76
17362;BME280;8798;51.938;4.348;2022-08-03T13:25:56;102623.50;;;29.14;56.95
17362;BME280;8798;51.938;4.348;2022-08-03T13:28:25;102596.28;;;29.11;56.89